CheckWX is a tool to help pilots better visualize weather data.  It is not intended as a substitute for an official pre-flight weather briefing.

01:42:14 UTC

EPZG TAF
Zielona Góra-Babimost Airport
Babimost, Poland
TAF EPZG 182030Z 1821/1906 VRB02KT 9999 SCT035 TEMPO 1821/1906 -SHRA BKN033CB PROB40 TEMPO 1821/1903 24015G35KT 4000 TSRA BKN013 BKN025CB

Aug-18@
21:00 UTC

Aug-18 @ 21:00 UTC

Aug-19@
06:00 UTC

Aug-19 @ 06:00 UTC

TAF EPZG 182030Z 1821/1906 VRB02KT 9999 SCT035
Wind
  • Variable at 2 KTS
Cloud Levels
  • Scattered at 3,500' AGL

Aug-18@
21:00 UTC

Aug-18 @ 21:00 UTC

Aug-19@
03:00 UTC

Aug-19 @ 03:00 UTC

PROB40 TEMPO 1821/1903 24015G35KT 4000 TSRA BKN013 BKN025CB

Temporary - 40% Likelihood

Temporary - 40% Likelihood during this time.

Wind
  • 240° at 15 KTS
  • {Gusting to 35 KTS
Conditions
Thunderstorm, Rain
Cloud Levels
  • Broken at 1,300' AGL
  • Broken at 2,500' AGL

Aug-18@
21:00 UTC

Aug-18 @ 21:00 UTC

Aug-19@
06:00 UTC

Aug-19 @ 06:00 UTC

TEMPO 1821/1906 -SHRA BKN033CB

Temporary

Temporary Changes expected for less than half the time period

Conditions
Light Rain
Cloud Levels
  • Broken at 3,300' AGL